Time;durP1;ratioP1;P1;durP2;ratioP2;P2;SDS_P1;SDS_P2;PMS_P1;PMS_P2;Temp;Humidity;BMP_temperature;BMP_pressure;BME280_temperature;BME280_humidity;BME280_pressure;Samples;Min_cycle;Max_cycle;Signal;HPM_P1;HPM_P2
2023/06/09 00:02:18;;;;;;;21.40;12.63;;;;;;;;;;5034171;28;20430;-58
2023/06/09 00:04:44;;;;;;;19.60;12.40;;;;;;;;;;5033538;28;20472;-59
2023/06/09 00:07:10;;;;;;;43.72;33.15;;;;;;;;;;5034144;28;20052;-60
2023/06/09 00:09:36;;;;;;;32.97;23.73;;;;;;;;;;5034189;28;20594;-54
2023/06/09 00:12:02;;;;;;;29.58;20.20;;;;;;;;;;5034258;28;20041;-62
2023/06/09 00:14:28;;;;;;;20.92;13.45;;;;;;;;;;5033164;28;20096;-60
2023/06/09 00:16:55;;;;;;;22.23;13.30;;;;;;;;;;5033918;28;20025;-59
2023/06/09 00:19:24;;;;;;;22.98;14.63;;;;;;;;;;5033406;28;20022;-60
2023/06/09 00:21:50;;;;;;;21.48;13.60;;;;;;;;;;5033924;28;20665;-60
2023/06/09 00:24:19;;;;;;;20.67;12.07;;;;;;;;;;5033219;28;20088;-58
2023/06/09 00:26:45;;;;;;;23.67;13.57;;;;;;;;;;5033915;28;20052;-60
2023/06/09 00:29:11;;;;;;;21.52;13.88;;;;;;;;;;5033720;28;20434;-58
2023/06/09 00:31:37;;;;;;;23.88;14.70;;;;;;;;;;5033695;28;20021;-60
2023/06/09 00:34:04;;;;;;;20.13;12.80;;;;;;;;;;5033091;28;20034;-59
2023/06/09 00:36:30;;;;;;;22.65;13.50;;;;;;;;;;5033530;28;20028;-60
2023/06/09 00:38:56;;;;;;;24.05;13.50;;;;;;;;;;5034177;28;20018;-58
2023/06/09 00:41:22;;;;;;;21.80;14.18;;;;;;;;;;5033973;28;20029;-60
2023/06/09 00:43:48;;;;;;;23.85;17.20;;;;;;;;;;5048478;28;20545;-60
2023/06/09 00:46:14;;;;;;;25.00;13.45;;;;;;;;;;5032951;28;20025;-59
2023/06/09 00:48:40;;;;;;;21.02;13.10;;;;;;;;;;5033501;28;20028;-58
2023/06/09 00:51:06;;;;;;;22.35;15.20;;;;;;;;;;5033399;28;20025;-58
2023/06/09 00:56:01;;;;;;;20.75;12.10;;;;;;;;;;5015275;28;20038;-62
2023/06/09 00:58:27;;;;;;;19.20;11.73;;;;;;;;;;5032848;28;20026;-63
2023/06/09 01:00:53;;;;;;;22.55;11.68;;;;;;;;;;5033442;28;20018;-61
2023/06/09 01:03:20;;;;;;;21.38;12.27;;;;;;;;;;5018400;28;20557;-63
2023/06/09 01:05:48;;;;;;;21.25;11.52;;;;;;;;;;5017725;28;20030;-61
2023/06/09 01:08:17;;;;;;;;;;;;;;;;;;5018261;28;20541;-63
2023/06/09 01:11:05;;;;;;;21.73;11.93;;;;;;;;;;5017863;28;19907;-63
2023/06/09 01:13:31;;;;;;;21.48;12.32;;;;;;;;;;5033116;28;20018;-65
2023/06/09 01:16:02;;;;;;;24.10;11.95;;;;;;;;;;5017350;28;20049;-62
2023/06/09 01:18:30;;;;;;;24.13;12.82;;;;;;;;;;5017477;28;20109;-63
2023/06/09 01:20:57;;;;;;;22.65;11.65;;;;;;;;;;5016337;28;20118;-63
2023/06/09 01:23:22;;;;;;;20.70;11.63;;;;;;;;;;5018566;28;20552;-62
2023/06/09 01:25:50;;;;;;;22.48;11.88;;;;;;;;;;5015752;28;20025;-62
2023/06/09 01:28:20;;;;;;;22.50;11.85;;;;;;;;;;5018701;28;20401;-64
2023/06/09 01:30:46;;;;;;;23.08;12.35;;;;;;;;;;5017055;28;20508;-61
2023/06/09 01:33:15;;;;;;;20.63;11.38;;;;;;;;;;5017798;28;20492;-62
2023/06/09 01:35:42;;;;;;;22.90;12.02;;;;;;;;;;5016938;28;20018;-62
2023/06/09 01:38:08;;;;;;;22.05;11.02;;;;;;;;;;5017330;28;20038;-61
2023/06/09 01:40:34;;;;;;;24.42;12.05;;;;;;;;;;5017187;28;20536;-62
2023/06/09 01:43:01;;;;;;;19.13;10.52;;;;;;;;;;5017901;28;20026;-61
2023/06/09 01:45:27;;;;;;;20.08;10.88;;;;;;;;;;5015116;28;20020;-62
2023/06/09 01:47:53;;;;;;;22.52;11.43;;;;;;;;;;5017495;28;20535;-63
2023/06/09 01:50:24;;;;;;;20.15;11.45;;;;;;;;;;5017855;28;20473;-62
2023/06/09 01:52:53;;;;;;;18.95;10.68;;;;;;;;;;5016079;28;20057;-60
2023/06/09 01:55:26;;;;;;;24.67;11.75;;;;;;;;;;5014571;28;20045;-63
2023/06/09 01:57:57;;;;;;;22.25;10.63;;;;;;;;;;5016818;28;20107;-60
2023/06/09 02:00:25;;;;;;;20.83;11.75;;;;;;;;;;5019002;28;20074;-64
2023/06/09 02:02:53;;;;;;;23.40;11.73;;;;;;;;;;5018176;28;20045;-63
2023/06/09 02:05:20;;;;;;;22.73;11.50;;;;;;;;;;5016660;28;20033;-63
2023/06/09 02:07:46;;;;;;;23.40;11.20;;;;;;;;;;5017396;28;20421;-58
2023/06/09 02:10:12;;;;;;;21.33;11.07;;;;;;;;;;5017793;28;20042;-61
2023/06/09 02:12:38;;;;;;;19.70;10.73;;;;;;;;;;5017724;28;20021;-62
2023/06/09 02:15:05;;;;;;;20.35;11.20;;;;;;;;;;5015826;28;20051;-64
2023/06/09 02:17:33;;;;;;;21.90;11.55;;;;;;;;;;5015855;28;20025;-60
2023/06/09 02:19:59;;;;;;;22.35;10.73;;;;;;;;;;5014624;28;20025;-59
2023/06/09 02:22:26;;;;;;;28.42;11.65;;;;;;;;;;5014407;28;20029;-58
2023/06/09 02:24:52;;;;;;;21.70;12.02;;;;;;;;;;5013736;28;20025;-59
2023/06/09 02:27:18;;;;;;;24.50;12.73;;;;;;;;;;5015454;28;20022;-60
2023/06/09 02:29:44;;;;;;;21.05;11.60;;;;;;;;;;5014545;28;20025;-58
2023/06/09 02:32:10;;;;;;;22.38;11.55;;;;;;;;;;5014561;28;20410;-59
2023/06/09 02:34:37;;;;;;;21.98;11.75;;;;;;;;;;5013747;28;20040;-60
2023/06/09 02:37:07;;;;;;;21.92;11.48;;;;;;;;;;5016313;28;20014;-62
2023/06/09 02:39:33;;;;;;;24.60;11.40;;;;;;;;;;5016463;28;20112;-61
2023/06/09 02:41:59;;;;;;;22.70;11.10;;;;;;;;;;5019663;28;20018;-62
2023/06/09 02:44:25;;;;;;;19.83;11.65;;;;;;;;;;5018217;28;20018;-59
2023/06/09 02:46:51;;;;;;;25.75;12.82;;;;;;;;;;5019106;28;20022;-60
2023/06/09 02:49:17;;;;;;;24.75;11.98;;;;;;;;;;5018699;28;20504;-60
2023/06/09 02:51:43;;;;;;;22.48;11.10;;;;;;;;;;5018387;28;20026;-58
2023/06/09 02:54:09;;;;;;;24.38;11.90;;;;;;;;;;5018134;28;20448;-56
2023/06/09 02:56:35;;;;;;;20.30;11.15;;;;;;;;;;5019555;28;20034;-62
2023/06/09 02:59:02;;;;;;;21.95;11.68;;;;;;;;;;5020828;28;20091;-62
2023/06/09 03:01:34;;;;;;;22.92;12.15;;;;;;;;;;5020154;28;20052;-62
2023/06/09 03:04:02;;;;;;;19.42;11.85;;;;;;;;;;5019044;28;20052;-61
2023/06/09 03:06:29;;;;;;;22.90;12.07;;;;;;;;;;5019254;28;20022;-62
2023/06/09 03:08:55;;;;;;;24.52;11.55;;;;;;;;;;5025747;28;20034;-62
2023/06/09 03:11:21;;;;;;;24.25;12.23;;;;;;;;;;5024836;28;20033;-62
2023/06/09 03:13:47;;;;;;;23.88;11.70;;;;;;;;;;5022925;28;20079;-61
2023/06/09 03:16:13;;;;;;;22.88;11.93;;;;;;;;;;5029863;28;20032;-60
2023/06/09 03:18:39;;;;;;;24.83;12.05;;;;;;;;;;5020553;28;20018;-60
2023/06/09 03:21:05;;;;;;;20.58;11.75;;;;;;;;;;5018756;28;20480;-62
2023/06/09 03:23:34;;;;;;;23.15;12.23;;;;;;;;;;5019177;28;20022;-61
2023/06/09 03:26:00;;;;;;;22.08;11.60;;;;;;;;;;5019779;28;20101;-62
2023/06/09 03:28:26;;;;;;;23.90;11.63;;;;;;;;;;5020423;28;20096;-62
2023/06/09 03:30:52;;;;;;;25.33;12.73;;;;;;;;;;5020497;28;20025;-62
2023/06/09 03:33:19;;;;;;;21.52;11.40;;;;;;;;;;5034705;28;20079;-61
2023/06/09 03:35:45;;;;;;;20.48;11.18;;;;;;;;;;5019272;28;20068;-60
2023/06/09 03:38:11;;;;;;;21.73;11.73;;;;;;;;;;5035030;28;20018;-61
2023/06/09 03:40:37;;;;;;;24.55;11.85;;;;;;;;;;5020353;28;20037;-63
2023/06/09 03:43:03;;;;;;;24.08;12.57;;;;;;;;;;5020009;28;20026;-63
2023/06/09 03:45:29;;;;;;;20.65;11.05;;;;;;;;;;5018444;28;20057;-63
2023/06/09 03:47:56;;;;;;;25.30;12.25;;;;;;;;;;5020479;28;20018;-60
2023/06/09 03:50:22;;;;;;;31.70;12.27;;;;;;;;;;5020363;28;20508;-63
2023/06/09 03:52:48;;;;;;;19.70;11.10;;;;;;;;;;5019267;28;20030;-62
2023/06/09 03:55:19;;;;;;;23.88;12.60;;;;;;;;;;5018547;28;20026;-63
2023/06/09 03:57:45;;;;;;;23.42;12.70;;;;;;;;;;5034327;28;20417;-63
2023/06/09 04:00:12;;;;;;;25.30;12.55;;;;;;;;;;5019296;28;20025;-62
2023/06/09 04:02:38;;;;;;;28.70;19.27;;;;;;;;;;5019572;28;20030;-62
2023/06/09 04:05:04;;;;;;;29.05;16.70;;;;;;;;;;5019406;28;20083;-61
2023/06/09 04:07:30;;;;;;;23.90;12.82;;;;;;;;;;5035353;28;20383;-62
2023/06/09 04:09:56;;;;;;;24.83;12.20;;;;;;;;;;5019944;28;20053;-62
2023/06/09 04:12:22;;;;;;;26.77;12.48;;;;;;;;;;5019712;28;20056;-62
2023/06/09 04:14:48;;;;;;;24.48;12.35;;;;;;;;;;5034501;28;20028;-62
2023/06/09 04:17:14;;;;;;;27.75;12.77;;;;;;;;;;5018704;28;20045;-61
2023/06/09 04:19:40;;;;;;;21.73;12.65;;;;;;;;;;5017442;28;20033;-59
2023/06/09 04:22:07;;;;;;;25.77;13.15;;;;;;;;;;5032786;28;20029;-61
2023/06/09 04:24:33;;;;;;;26.98;13.20;;;;;;;;;;5015737;28;20014;-61
2023/06/09 04:27:01;;;;;;;24.38;12.27;;;;;;;;;;5016424;28;20033;-61
2023/06/09 04:29:28;;;;;;;22.85;11.43;;;;;;;;;;5016358;28;20022;-60
2023/06/09 04:31:58;;;;;;;26.65;12.95;;;;;;;;;;5017319;28;20029;-61
2023/06/09 04:34:25;;;;;;;21.50;13.20;;;;;;;;;;5015644;28;20026;-62
2023/06/09 04:36:53;;;;;;;23.80;13.10;;;;;;;;;;5017940;28;20026;-63
2023/06/09 04:39:24;;;;;;;27.38;13.68;;;;;;;;;;5016900;28;20014;-55
2023/06/09 04:41:53;;;;;;;24.67;12.23;;;;;;;;;;5017381;28;20113;-63
2023/06/09 04:44:20;;;;;;;;;;;;;;;;;;5018413;28;20018;-61
2023/06/09 04:46:49;;;;;;;23.48;12.68;;;;;;;;;;5018638;28;19945;-64
2023/06/09 04:49:15;;;;;;;21.48;12.25;;;;;;;;;;5018955;28;20069;-61
2023/06/09 04:51:46;;;;;;;26.27;12.35;;;;;;;;;;5017934;28;20049;-62
2023/06/09 04:54:12;;;;;;;24.23;13.77;;;;;;;;;;5016958;28;20025;-64
2023/06/09 04:56:38;;;;;;;23.15;13.05;;;;;;;;;;5018557;28;20029;-62
2023/06/09 04:59:05;;;;;;;22.23;12.15;;;;;;;;;;5018296;28;20022;-63
2023/06/09 05:01:31;;;;;;;25.80;13.32;;;;;;;;;;5016224;28;20022;-62
2023/06/09 05:03:58;;;;;;;24.23;13.70;;;;;;;;;;5015656;28;20028;-57
2023/06/09 05:06:24;;;;;;;21.35;13.02;;;;;;;;;;5013073;28;20024;-53
2023/06/09 05:08:51;;;;;;;21.77;12.88;;;;;;;;;;5014692;28;20034;-62
2023/06/09 05:11:17;;;;;;;22.58;13.20;;;;;;;;;;5016160;28;20402;-64
2023/06/09 05:13:43;;;;;;;23.98;14.25;;;;;;;;;;5017616;28;20037;-60
2023/06/09 05:16:09;;;;;;;22.13;13.60;;;;;;;;;;5017479;28;20041;-61
2023/06/09 05:18:35;;;;;;;21.77;14.77;;;;;;;;;;5016445;28;20017;-61
2023/06/09 05:21:01;;;;;;;24.58;14.75;;;;;;;;;;5017761;28;20065;-61
2023/06/09 05:23:27;;;;;;;25.30;14.88;;;;;;;;;;5017610;28;20286;-61
2023/06/09 05:25:53;;;;;;;25.23;14.65;;;;;;;;;;5017325;28;20113;-61
2023/06/09 05:28:19;;;;;;;22.58;14.18;;;;;;;;;;5017294;28;20022;-63
2023/06/09 05:30:45;;;;;;;24.00;14.15;;;;;;;;;;5018181;28;20269;-59
2023/06/09 05:33:11;;;;;;;26.88;14.48;;;;;;;;;;5017722;28;20053;-61
2023/06/09 05:35:37;;;;;;;21.83;14.70;;;;;;;;;;5015191;28;20096;-62
2023/06/09 05:38:03;;;;;;;23.58;14.07;;;;;;;;;;5016853;28;20098;-61
2023/06/09 05:40:29;;;;;;;22.67;14.75;;;;;;;;;;5015412;28;20053;-61
2023/06/09 05:42:55;;;;;;;23.95;14.50;;;;;;;;;;5016141;28;20045;-61
2023/06/09 05:45:21;;;;;;;25.27;14.00;;;;;;;;;;5016965;28;20033;-63
2023/06/09 05:47:48;;;;;;;22.10;14.55;;;;;;;;;;5016750;28;20030;-63
2023/06/09 05:50:14;;;;;;;23.33;15.00;;;;;;;;;;5017113;28;20029;-62
2023/06/09 05:52:40;;;;;;;24.30;14.57;;;;;;;;;;5016783;28;20025;-61
2023/06/09 05:55:06;;;;;;;22.02;13.68;;;;;;;;;;5016235;28;20474;-61
2023/06/09 05:57:32;;;;;;;25.58;15.45;;;;;;;;;;5015887;28;20026;-61
2023/06/09 05:59:59;;;;;;;22.80;14.63;;;;;;;;;;5016727;28;20021;-60
2023/06/09 06:02:25;;;;;;;22.33;14.27;;;;;;;;;;5017039;28;20706;-55
2023/06/09 06:04:51;;;;;;;21.65;14.02;;;;;;;;;;5016345;28;20079;-59
2023/06/09 06:07:18;;;;;;;21.45;15.10;;;;;;;;;;5016867;28;20033;-63
2023/06/09 06:09:44;;;;;;;30.05;15.23;;;;;;;;;;5020315;28;20394;-62
2023/06/09 06:12:10;;;;;;;20.45;13.90;;;;;;;;;;5020791;28;20025;-59
2023/06/09 06:14:36;;;;;;;21.33;14.40;;;;;;;;;;5014667;28;20109;-63
2023/06/09 06:17:02;;;;;;;21.00;14.25;;;;;;;;;;5023855;28;20053;-62
2023/06/09 06:19:28;;;;;;;20.60;14.25;;;;;;;;;;5024362;28;20049;-58
2023/06/09 06:21:54;;;;;;;22.75;14.38;;;;;;;;;;5015745;28;20505;-58
2023/06/09 06:24:20;;;;;;;24.67;14.52;;;;;;;;;;5014937;28;20466;-62
2023/06/09 06:26:46;;;;;;;22.42;14.48;;;;;;;;;;5015529;28;20026;-62
2023/06/09 06:29:12;;;;;;;23.48;15.80;;;;;;;;;;5015347;28;20033;-63
2023/06/09 06:31:39;;;;;;;22.60;14.43;;;;;;;;;;5014362;28;20086;-62
2023/06/09 06:34:05;;;;;;;23.80;14.05;;;;;;;;;;5013864;28;20026;-59
2023/06/09 06:36:31;;;;;;;22.38;14.90;;;;;;;;;;5014002;28;20026;-58
2023/06/09 06:38:57;;;;;;;21.75;14.65;;;;;;;;;;5008685;28;20049;-56
2023/06/09 06:41:23;;;;;;;21.48;14.02;;;;;;;;;;5010203;28;20022;-54
2023/06/09 06:43:50;;;;;;;20.55;14.13;;;;;;;;;;5010247;28;20093;-56
2023/06/09 06:46:17;;;;;;;18.38;13.65;;;;;;;;;;5009904;28;20030;-57
2023/06/09 06:48:43;;;;;;;20.15;13.95;;;;;;;;;;5010208;28;20073;-57
2023/06/09 06:51:09;;;;;;;20.65;14.02;;;;;;;;;;5009151;28;20048;-55
2023/06/09 06:53:37;;;;;;;20.45;13.95;;;;;;;;;;5010289;28;20425;-53
2023/06/09 06:56:03;;;;;;;20.77;13.98;;;;;;;;;;5042374;22;20544;-59
2023/06/09 06:58:29;;;;;;;20.10;15.07;;;;;;;;;;5030030;28;20025;-59
2023/06/09 07:00:55;;;;;;;21.27;14.05;;;;;;;;;;5031278;28;20508;-61
2023/06/09 07:03:25;;;;;;;21.15;14.13;;;;;;;;;;5031588;28;20025;-60
2023/06/09 07:05:51;;;;;;;19.30;13.43;;;;;;;;;;5030696;28;20436;-58
2023/06/09 07:08:18;;;;;;;20.35;13.73;;;;;;;;;;5031390;28;20084;-62
2023/06/09 07:10:43;;;;;;;19.80;13.38;;;;;;;;;;5031368;28;20020;-60
2023/06/09 07:13:10;;;;;;;19.98;14.05;;;;;;;;;;5033179;28;20009;-59
2023/06/09 07:15:37;;;;;;;20.17;14.77;;;;;;;;;;5050426;28;20021;-55
2023/06/09 07:18:03;;;;;;;20.83;14.70;;;;;;;;;;5050871;28;20476;-60
2023/06/09 07:20:30;;;;;;;22.42;13.95;;;;;;;;;;5050777;28;20051;-57
2023/06/09 07:22:56;;;;;;;19.98;13.57;;;;;;;;;;5050901;28;20024;-61
2023/06/09 07:25:22;;;;;;;20.02;14.73;;;;;;;;;;5050305;28;20098;-61
2023/06/09 07:27:48;;;;;;;19.75;14.75;;;;;;;;;;5048617;28;20029;-60
2023/06/09 07:30:15;;;;;;;19.65;14.75;;;;;;;;;;5052116;28;20040;-60
2023/06/09 07:32:41;;;;;;;22.27;14.40;;;;;;;;;;5053092;28;20107;-60
2023/06/09 07:35:12;;;;;;;19.35;14.55;;;;;;;;;;5053392;28;20062;-60
2023/06/09 07:37:39;;;;;;;19.08;15.43;;;;;;;;;;5052096;28;20087;-58
2023/06/09 07:40:06;;;;;;;19.85;15.48;;;;;;;;;;5047422;28;20540;-59
2023/06/09 07:42:32;;;;;;;19.27;15.02;;;;;;;;;;5032937;28;20493;-60
2023/06/09 07:44:58;;;;;;;20.35;15.63;;;;;;;;;;5032291;28;20040;-59
2023/06/09 07:47:25;;;;;;;18.85;15.52;;;;;;;;;;5034051;28;20025;-60
2023/06/09 07:49:51;;;;;;;20.75;15.75;;;;;;;;;;5032946;28;20029;-60
2023/06/09 07:52:17;;;;;;;21.10;16.38;;;;;;;;;;5032714;28;20033;-58
2023/06/09 07:54:43;;;;;;;21.83;16.40;;;;;;;;;;5031853;28;20021;-57
2023/06/09 07:57:09;;;;;;;20.05;15.60;;;;;;;;;;5032277;28;20029;-60
2023/06/09 07:59:35;;;;;;;22.85;16.25;;;;;;;;;;5032556;28;20060;-60
2023/06/09 08:02:01;;;;;;;18.42;14.80;;;;;;;;;;5032423;28;20131;-59
2023/06/09 08:04:29;;;;;;;19.88;16.02;;;;;;;;;;5032143;28;20653;-58
2023/06/09 08:06:58;;;;;;;18.88;15.13;;;;;;;;;;5034419;28;20420;-60
2023/06/09 08:09:25;;;;;;;20.35;15.90;;;;;;;;;;5032516;28;20037;-60
2023/06/09 08:11:51;;;;;;;20.50;16.42;;;;;;;;;;5032545;28;20112;-60
2023/06/09 08:14:17;;;;;;;19.00;15.85;;;;;;;;;;5032690;28;20045;-60
2023/06/09 08:16:43;;;;;;;21.10;16.33;;;;;;;;;;5029523;28;20034;-60
2023/06/09 08:19:09;;;;;;;21.23;16.30;;;;;;;;;;5018574;28;20025;-60
2023/06/09 08:21:42;;;;;;;19.17;14.95;;;;;;;;;;5031304;28;20044;-64
2023/06/09 08:24:09;;;;;;;19.58;15.07;;;;;;;;;;5032614;28;20498;-63
2023/06/09 08:26:35;;;;;;;23.30;15.50;;;;;;;;;;5031805;28;20034;-64
2023/06/09 08:29:02;;;;;;;19.75;15.80;;;;;;;;;;5032284;28;20132;-64
2023/06/09 08:31:28;;;;;;;18.90;14.90;;;;;;;;;;5025780;28;20690;-64
2023/06/09 08:33:54;;;;;;;19.35;15.60;;;;;;;;;;5028676;28;20112;-63
2023/06/09 08:36:21;;;;;;;21.60;17.40;;;;;;;;;;5031135;28;20070;-62
2023/06/09 08:38:47;;;;;;;20.58;16.23;;;;;;;;;;5032601;28;20017;-62
2023/06/09 08:41:15;;;;;;;19.55;15.55;;;;;;;;;;5032123;28;20049;-63
2023/06/09 08:43:41;;;;;;;19.67;16.15;;;;;;;;;;5032796;28;20021;-62
2023/06/09 08:46:08;;;;;;;19.63;15.13;;;;;;;;;;5032029;28;20013;-62
2023/06/09 08:48:36;;;;;;;18.63;15.77;;;;;;;;;;5028616;28;20018;-62
2023/06/09 08:51:02;;;;;;;18.92;14.98;;;;;;;;;;5031276;28;20105;-63
2023/06/09 08:53:29;;;;;;;22.95;15.60;;;;;;;;;;5031598;28;20032;-62
2023/06/09 08:55:56;;;;;;;19.27;15.35;;;;;;;;;;5029849;28;20056;-63
2023/06/09 08:58:22;;;;;;;18.73;15.75;;;;;;;;;;5031587;28;20483;-63
2023/06/09 09:00:50;;;;;;;21.23;15.82;;;;;;;;;;5031290;28;20508;-63
2023/06/09 09:03:17;;;;;;;20.48;15.65;;;;;;;;;;5029479;28;20017;-63
2023/06/09 09:05:43;;;;;;;20.15;15.57;;;;;;;;;;5030635;28;20052;-63
2023/06/09 09:08:09;;;;;;;18.67;15.35;;;;;;;;;;5032722;28;20113;-63
2023/06/09 09:10:38;;;;;;;18.38;14.93;;;;;;;;;;5032455;28;20026;-64
2023/06/09 09:13:07;;;;;;;20.35;15.05;;;;;;;;;;5032288;28;20017;-64
2023/06/09 09:15:33;;;;;;;19.45;15.50;;;;;;;;;;5030478;28;20052;-64
2023/06/09 09:17:59;;;;;;;19.27;16.08;;;;;;;;;;5032011;28;20022;-64
2023/06/09 09:20:35;;;;;;;19.77;15.00;;;;;;;;;;5032548;28;20020;-63
2023/06/09 09:23:02;;;;;;;18.75;15.10;;;;;;;;;;5030885;28;20047;-64
2023/06/09 09:25:30;;;;;;;17.92;15.30;;;;;;;;;;5031551;28;20085;-64
2023/06/09 09:27:59;;;;;;;19.38;15.70;;;;;;;;;;5031199;28;20719;-63
2023/06/09 09:30:54;;;;;;;20.10;15.23;;;;;;;;;;5033944;28;20029;-63
2023/06/09 09:33:21;;;;;;;19.55;16.13;;;;;;;;;;5020153;28;20148;-61
2023/06/09 09:35:49;;;;;;;21.55;15.93;;;;;;;;;;5031399;28;20028;-62
2023/06/09 09:38:25;;;;;;;20.20;15.80;;;;;;;;;;5031126;28;20409;-63
2023/06/09 09:40:52;;;;;;;20.33;15.50;;;;;;;;;;5030378;28;20627;-63
2023/06/09 09:43:19;;;;;;;19.42;15.35;;;;;;;;;;5030895;28;20060;-64
2023/06/09 09:45:46;;;;;;;19.17;16.15;;;;;;;;;;5029271;28;20020;-63
2023/06/09 09:48:15;;;;;;;20.00;16.10;;;;;;;;;;5031081;28;20104;-62
2023/06/09 09:50:43;;;;;;;19.90;15.48;;;;;;;;;;5029893;28;20450;-64
2023/06/09 09:53:09;;;;;;;20.65;15.88;;;;;;;;;;5031827;28;20018;-63
2023/06/09 09:55:36;;;;;;;19.67;16.05;;;;;;;;;;5029334;28;20084;-63
2023/06/09 09:58:06;;;;;;;20.10;15.82;;;;;;;;;;5031677;28;20492;-63
2023/06/09 10:00:35;;;;;;;21.42;15.70;;;;;;;;;;5031503;28;20354;-63
2023/06/09 10:03:06;;;;;;;19.83;15.68;;;;;;;;;;5029548;28;20021;-63
2023/06/09 10:05:33;;;;;;;19.05;15.52;;;;;;;;;;5029518;28;20377;-62
2023/06/09 10:08:02;;;;;;;20.10;15.43;;;;;;;;;;5030433;28;20017;-62
2023/06/09 10:10:28;;;;;;;19.67;15.27;;;;;;;;;;5031569;28;20026;-63
2023/06/09 10:12:56;;;;;;;19.15;15.77;;;;;;;;;;5031311;28;20037;-64
2023/06/09 10:15:22;;;;;;;18.70;15.70;;;;;;;;;;5030510;28;20018;-63
2023/06/09 10:17:48;;;;;;;19.30;15.88;;;;;;;;;;5031003;28;20072;-63
2023/06/09 10:20:15;;;;;;;18.45;15.15;;;;;;;;;;5030936;28;20035;-64
2023/06/09 10:22:41;;;;;;;18.50;15.43;;;;;;;;;;5031399;28;20029;-63
2023/06/09 10:25:08;;;;;;;19.30;16.55;;;;;;;;;;5030094;28;20014;-62
2023/06/09 10:27:34;;;;;;;19.92;16.80;;;;;;;;;;5024932;28;20033;-63
2023/06/09 10:30:01;;;;;;;20.95;15.98;;;;;;;;;;5028567;28;20102;-63
2023/06/09 10:32:28;;;;;;;19.60;15.48;;;;;;;;;;5026215;28;20030;-63
2023/06/09 10:34:56;;;;;;;19.30;16.47;;;;;;;;;;5028508;28;20599;-65
2023/06/09 10:37:32;;;;;;;19.60;16.45;;;;;;;;;;5029557;28;20281;-65
2023/06/09 10:40:09;;;;;;;19.65;16.00;;;;;;;;;;5029697;28;20026;-64
2023/06/09 10:42:47;;;;;;;21.42;16.00;;;;;;;;;;5030864;28;20549;-66
2023/06/09 10:45:14;;;;;;;21.75;16.85;;;;;;;;;;5029975;28;20025;-64
2023/06/09 10:47:45;;;;;;;20.08;16.00;;;;;;;;;;5030553;28;20029;-65
2023/06/09 10:50:23;;;;;;;20.05;17.10;;;;;;;;;;5030708;28;20036;-64
2023/06/09 10:52:52;;;;;;;20.90;16.45;;;;;;;;;;5030160;28;20036;-64
2023/06/09 10:55:21;;;;;;;18.50;15.45;;;;;;;;;;5028883;28;20045;-64
2023/06/09 10:57:47;;;;;;;19.52;16.92;;;;;;;;;;5030369;28;20832;-63
2023/06/09 11:00:14;;;;;;;21.77;16.63;;;;;;;;;;5031412;28;20022;-64
2023/06/09 11:02:41;;;;;;;21.52;16.42;;;;;;;;;;5032646;28;20412;-63
2023/06/09 11:05:07;;;;;;;19.10;15.95;;;;;;;;;;5033706;28;20092;-63
2023/06/09 11:07:39;;;;;;;19.17;15.50;;;;;;;;;;5034731;28;20071;-64
2023/06/09 11:10:11;;;;;;;20.45;15.98;;;;;;;;;;5034678;28;20488;-64
2023/06/09 11:12:36;;;;;;;22.73;15.88;;;;;;;;;;5034353;28;20098;-64
2023/06/09 11:15:03;;;;;;;21.27;16.27;;;;;;;;;;5033728;28;20469;-64
2023/06/09 11:17:42;;;;;;;20.25;16.00;;;;;;;;;;5035902;28;20120;-64
2023/06/09 11:20:09;;;;;;;20.63;16.30;;;;;;;;;;5053980;28;20017;-65
2023/06/09 11:22:38;;;;;;;21.23;16.17;;;;;;;;;;5054362;28;20459;-65
2023/06/09 11:25:04;;;;;;;21.35;16.20;;;;;;;;;;5053297;28;20021;-67
2023/06/09 11:27:30;;;;;;;19.77;16.33;;;;;;;;;;5053215;28;20051;-64
2023/06/09 11:30:15;;;;;;;19.08;15.68;;;;;;;;;;5052966;28;20025;-65
2023/06/09 11:32:53;;;;;;;19.83;15.68;;;;;;;;;;5053884;28;20024;-62
2023/06/09 11:35:25;;;;;;;20.48;16.13;;;;;;;;;;5053386;28;20035;-62
2023/06/09 11:37:52;;;;;;;21.60;16.75;;;;;;;;;;5051330;28;20036;-63
2023/06/09 11:40:18;;;;;;;21.52;16.48;;;;;;;;;;5042562;28;20018;-64
2023/06/09 11:42:45;;;;;;;19.75;15.85;;;;;;;;;;5038633;28;20491;-62
2023/06/09 11:45:11;;;;;;;18.60;16.58;;;;;;;;;;5039636;28;20017;-63
2023/06/09 11:47:40;;;;;;;20.38;17.30;;;;;;;;;;5040683;28;20348;-64
2023/06/09 11:50:07;;;;;;;20.23;17.25;;;;;;;;;;4682531;28;9999791;-63
2023/06/09 11:52:33;;;;;;;19.40;17.00;;;;;;;;;;5038486;28;20021;-62
2023/06/09 11:55:01;;;;;;;19.30;17.00;;;;;;;;;;5037600;28;20099;-63
2023/06/09 11:57:27;;;;;;;18.88;16.75;;;;;;;;;;5039177;28;20443;-63
2023/06/09 11:59:53;;;;;;;19.65;16.85;;;;;;;;;;5036876;28;20033;-63
2023/06/09 12:02:20;;;;;;;20.80;17.20;;;;;;;;;;5049516;28;20108;-63
2023/06/09 12:04:48;;;;;;;19.40;16.92;;;;;;;;;;5049421;28;20497;-62
2023/06/09 12:07:15;;;;;;;20.83;16.75;;;;;;;;;;5043399;28;20037;-62
2023/06/09 12:09:42;;;;;;;20.25;16.92;;;;;;;;;;5030470;28;20021;-63
2023/06/09 12:12:08;;;;;;;19.23;16.85;;;;;;;;;;5036399;28;20786;-63
2023/06/09 12:14:34;;;;;;;19.65;17.05;;;;;;;;;;5037236;28;20017;-63
2023/06/09 12:17:00;;;;;;;21.73;16.77;;;;;;;;;;5035159;28;20035;-63
2023/06/09 12:19:28;;;;;;;18.60;16.60;;;;;;;;;;5030565;28;20066;-64
2023/06/09 12:21:54;;;;;;;20.10;17.08;;;;;;;;;;5030558;28;20031;-63
2023/06/09 12:24:20;;;;;;;18.88;16.77;;;;;;;;;;5039120;28;20075;-63
2023/06/09 12:26:49;;;;;;;19.27;16.63;;;;;;;;;;5037948;28;20025;-64
2023/06/09 12:29:15;;;;;;;19.88;17.80;;;;;;;;;;5040010;28;20030;-63
2023/06/09 12:31:49;;;;;;;19.20;16.80;;;;;;;;;;5033686;28;20021;-61
2023/06/09 12:34:31;;;;;;;19.27;17.13;;;;;;;;;;5037394;28;20401;-62
2023/06/09 12:36:59;;;;;;;20.35;17.63;;;;;;;;;;5038396;28;20029;-62
2023/06/09 12:39:29;;;;;;;20.23;16.95;;;;;;;;;;5039175;28;20026;-62
2023/06/09 12:41:55;;;;;;;18.73;16.73;;;;;;;;;;5043921;28;20043;-63
2023/06/09 12:44:22;;;;;;;18.73;16.25;;;;;;;;;;5037583;28;20025;-63
2023/06/09 12:46:55;;;;;;;19.02;16.80;;;;;;;;;;5051324;28;20025;-63
2023/06/09 12:49:34;;;;;;;20.15;16.67;;;;;;;;;;5052665;28;20055;-62
2023/06/09 12:52:00;;;;;;;19.95;16.10;;;;;;;;;;5052443;28;20017;-62
2023/06/09 12:57:06;;;;;;;20.25;16.38;;;;;;;;;;5035889;28;20063;-62
2023/06/09 12:59:33;;;;;;;20.00;16.27;;;;;;;;;;5029460;28;20614;-58
2023/06/09 13:01:59;;;;;;;18.48;16.17;;;;;;;;;;5030813;28;20055;-55
2023/06/09 13:04:25;;;;;;;19.80;17.25;;;;;;;;;;5030161;28;20052;-59
2023/06/09 13:06:51;;;;;;;18.77;16.75;;;;;;;;;;5048375;28;20096;-70
2023/06/09 13:09:17;;;;;;;20.63;17.45;;;;;;;;;;5048634;28;20099;-62
2023/06/09 13:11:43;;;;;;;19.35;16.48;;;;;;;;;;5047842;28;20093;-61
2023/06/09 13:14:09;;;;;;;20.02;16.75;;;;;;;;;;5046536;28;20457;-61
2023/06/09 13:16:35;;;;;;;19.67;16.30;;;;;;;;;;5030178;28;20147;-63
2023/06/09 13:19:01;;;;;;;20.00;16.40;;;;;;;;;;5047571;28;20077;-66
2023/06/09 13:21:30;;;;;;;20.42;16.83;;;;;;;;;;5047524;28;20468;-62
2023/06/09 13:23:56;;;;;;;20.60;16.35;;;;;;;;;;5047433;28;20104;-60
2023/06/09 13:26:22;;;;;;;20.42;16.20;;;;;;;;;;5046211;28;20027;-63
2023/06/09 13:28:48;;;;;;;19.23;15.60;;;;;;;;;;5047359;28;20024;-63
2023/06/09 13:31:14;;;;;;;17.77;15.82;;;;;;;;;;5046495;28;20055;-65
2023/06/09 13:33:40;;;;;;;20.42;16.48;;;;;;;;;;5047379;28;20029;-65
2023/06/09 13:36:06;;;;;;;21.42;16.38;;;;;;;;;;5046884;28;20058;-66
2023/06/09 13:38:37;;;;;;;18.13;15.80;;;;;;;;;;5047087;28;20020;-65
2023/06/09 13:41:03;;;;;;;18.10;15.85;;;;;;;;;;5033842;28;20462;-66
2023/06/09 13:43:29;;;;;;;20.77;16.48;;;;;;;;;;5046649;28;20065;-64
2023/06/09 13:45:55;;;;;;;20.15;16.90;;;;;;;;;;5046214;28;20052;-67
2023/06/09 13:48:21;;;;;;;22.50;16.95;;;;;;;;;;5047723;28;20127;-67
2023/06/09 13:50:47;;;;;;;18.65;16.27;;;;;;;;;;5029067;28;20562;-66
2023/06/09 13:53:13;;;;;;;17.92;16.02;;;;;;;;;;5046892;28;20119;-66
2023/06/09 13:55:39;;;;;;;18.70;16.27;;;;;;;;;;5045453;28;20047;-66
2023/06/09 13:58:05;;;;;;;17.92;15.88;;;;;;;;;;5046453;28;20061;-65
2023/06/09 14:00:31;;;;;;;19.13;15.68;;;;;;;;;;5046309;28;20021;-66
2023/06/09 14:02:57;;;;;;;17.60;15.60;;;;;;;;;;5043104;28;20025;-66
2023/06/09 14:05:24;;;;;;;20.77;17.08;;;;;;;;;;5045616;28;20116;-66
2023/06/09 14:07:50;;;;;;;20.55;16.77;;;;;;;;;;5046022;28;20029;-67
2023/06/09 14:10:16;;;;;;;18.17;15.95;;;;;;;;;;5046582;28;20039;-66
2023/06/09 14:12:47;;;;;;;17.73;15.75;;;;;;;;;;5046617;28;20032;-65
2023/06/09 14:15:15;;;;;;;18.25;16.25;;;;;;;;;;5027580;28;20108;-65
2023/06/09 14:17:49;;;;;;;18.67;16.10;;;;;;;;;;5047026;28;20029;-66
2023/06/09 14:20:15;;;;;;;19.67;16.33;;;;;;;;;;5045858;28;20021;-65
2023/06/09 14:22:41;;;;;;;20.70;16.38;;;;;;;;;;5046508;28;20044;-65
2023/06/09 14:25:07;;;;;;;22.60;17.42;;;;;;;;;;5045407;28;20044;-66